createdAt,value
2022-08-24T00:01:53.394Z,7.70
2022-08-24T00:04:20.423Z,8.57
2022-08-24T00:06:47.403Z,7.97
2022-08-24T00:09:14.313Z,7.87
2022-08-24T00:11:41.336Z,7.53
2022-08-24T00:14:08.402Z,8.00
2022-08-24T00:16:35.858Z,8.47
2022-08-24T00:19:03.583Z,9.40
2022-08-24T00:21:30.682Z,7.23
2022-08-24T00:23:58.062Z,9.00
2022-08-24T00:26:30.486Z,8.60
2022-08-24T00:28:58.948Z,9.80
2022-08-24T00:31:26.817Z,10.00
2022-08-24T00:33:54.896Z,9.87
2022-08-24T00:36:22.691Z,8.97
2022-08-24T00:38:50.015Z,10.23
2022-08-24T00:41:18.413Z,10.03
2022-08-24T00:44:01.514Z,9.60
2022-08-24T00:47:16.122Z,10.60
2022-08-24T00:49:54.352Z,10.60
2022-08-24T00:52:40.253Z,10.10
2022-08-24T00:55:28.033Z,10.60
2022-08-24T00:58:02.560Z,10.27
2022-08-24T01:00:36.463Z,10.03
2022-08-24T01:03:07.993Z,10.40
2022-08-24T01:05:38.393Z,10.90
2022-08-24T01:08:10.792Z,10.70
2022-08-24T01:10:49.243Z,10.20
2022-08-24T01:13:16.555Z,11.10
2022-08-24T01:15:49.214Z,10.77
2022-08-24T01:18:39.512Z,10.23
2022-08-24T01:21:36.936Z,12.80
2022-08-24T01:24:11.362Z,11.37
2022-08-24T01:26:47.303Z,12.57
2022-08-24T01:29:20.252Z,12.20
2022-08-24T01:31:51.686Z,12.13
2022-08-24T01:34:18.733Z,12.60
2022-08-24T01:36:50.722Z,11.87
2022-08-24T01:39:33.233Z,11.43
2022-08-24T01:42:02.023Z,11.17
2022-08-24T01:44:37.111Z,12.67
2022-08-24T01:47:07.903Z,12.73
2022-08-24T01:49:39.752Z,12.37
2022-08-24T01:52:10.132Z,12.40
2022-08-24T01:54:38.100Z,14.30
2022-08-24T01:57:05.671Z,12.93
2022-08-24T01:59:33.484Z,13.00
2022-08-24T02:02:19.313Z,13.80
2022-08-24T02:04:46.721Z,13.03
2022-08-24T02:07:14.212Z,12.60
2022-08-24T02:09:41.662Z,13.50
2022-08-24T02:12:09.371Z,13.97
2022-08-24T02:14:37.013Z,13.33
2022-08-24T02:17:07.772Z,14.17
2022-08-24T02:19:35.891Z,13.00
2022-08-24T02:22:02.953Z,13.80
2022-08-24T02:24:30.767Z,13.10
2022-08-24T02:26:58.312Z,13.37
2022-08-24T02:29:26.472Z,13.60
2022-08-24T02:31:53.501Z,13.17
2022-08-24T02:34:21.033Z,13.10
2022-08-24T02:36:48.045Z,13.67
2022-08-24T02:39:15.181Z,14.10
2022-08-24T02:41:42.141Z,13.70
2022-08-24T02:44:09.192Z,13.00
2022-08-24T02:46:37.040Z,14.50
2022-08-24T02:49:11.374Z,14.20
2022-08-24T02:51:44.254Z,15.10
2022-08-24T02:54:18.602Z,13.80
2022-08-24T02:56:47.331Z,13.70
2022-08-24T02:59:16.602Z,14.43
2022-08-24T03:01:44.884Z,15.50
2022-08-24T03:04:12.281Z,16.33
2022-08-24T03:06:39.663Z,13.97
2022-08-24T03:09:07.581Z,13.93
2022-08-24T03:11:35.483Z,15.10
2022-08-24T03:14:02.742Z,14.53
2022-08-24T03:16:30.486Z,13.83
2022-08-24T03:18:58.722Z,13.67
2022-08-24T03:21:26.957Z,13.77
2022-08-24T03:23:54.147Z,14.87
2022-08-24T03:26:21.253Z,15.27
2022-08-24T03:28:49.466Z,13.87
2022-08-24T03:31:17.120Z,14.27
2022-08-24T03:33:44.321Z,13.40
2022-08-24T03:36:14.298Z,14.57
2022-08-24T03:38:42.922Z,13.50
2022-08-24T03:41:11.117Z,13.70
2022-08-24T03:43:51.936Z,14.17
2022-08-24T03:46:29.163Z,13.77
2022-08-24T03:48:58.624Z,13.10
2022-08-24T03:51:28.308Z,14.50
2022-08-24T03:53:58.927Z,13.97
2022-08-24T03:56:27.307Z,15.00
2022-08-24T03:58:55.513Z,14.47
2022-08-24T04:01:22.736Z,14.87
2022-08-24T04:03:50.542Z,15.37
2022-08-24T04:06:20.132Z,15.77
2022-08-24T04:08:48.083Z,15.03
2022-08-24T04:11:20.082Z,15.87
2022-08-24T04:13:48.279Z,15.00
2022-08-24T04:16:19.172Z,14.93
2022-08-24T04:18:47.256Z,15.77
2022-08-24T04:21:35.426Z,15.50
2022-08-24T04:24:04.841Z,15.23
2022-08-24T04:26:44.741Z,15.80
2022-08-24T04:29:16.802Z,15.30
2022-08-24T04:31:44.755Z,16.63
2022-08-24T04:34:14.376Z,16.57
2022-08-24T04:36:43.807Z,15.10
2022-08-24T04:39:11.417Z,16.13
2022-08-24T04:41:38.466Z,15.83
2022-08-24T04:44:06.130Z,15.73
2022-08-24T04:46:33.057Z,15.93
2022-08-24T04:49:00.063Z,16.60
2022-08-24T04:51:27.400Z,15.67
2022-08-24T04:54:05.717Z,17.97
2022-08-24T04:56:37.025Z,17.17
2022-08-24T04:59:06.033Z,16.93
2022-08-24T05:01:33.842Z,16.50
2022-08-24T05:04:01.492Z,17.57
2022-08-24T05:06:32.795Z,19.83
2022-08-24T05:09:01.377Z,17.60
2022-08-24T05:11:28.683Z,16.53
2022-08-24T05:13:58.299Z,17.00
2022-08-24T05:16:26.971Z,16.27
2022-08-24T05:18:56.682Z,16.77
2022-08-24T05:21:26.181Z,17.47
2022-08-24T05:23:53.201Z,17.80
2022-08-24T05:26:26.937Z,17.87
2022-08-24T05:28:59.741Z,17.17
2022-08-24T05:31:31.196Z,18.47
2022-08-24T05:34:00.286Z,18.00
2022-08-24T05:36:32.908Z,17.73
2022-08-24T05:39:09.235Z,18.23
2022-08-24T05:41:41.796Z,18.50
2022-08-24T05:44:17.296Z,19.90
2022-08-24T05:46:45.221Z,18.73
2022-08-24T05:49:12.834Z,20.00
2022-08-24T05:51:40.623Z,20.43
2022-08-24T05:54:07.923Z,20.20
2022-08-24T05:56:35.091Z,22.53
2022-08-24T05:59:02.383Z,21.77
2022-08-24T06:01:29.594Z,21.23
2022-08-24T06:03:57.997Z,20.43
2022-08-24T06:06:26.977Z,20.60
2022-08-24T06:08:58.957Z,20.30
2022-08-24T06:11:39.332Z,20.47
2022-08-24T06:14:13.077Z,20.50
2022-08-24T06:16:45.405Z,17.70
2022-08-24T06:19:16.455Z,16.40
2022-08-24T06:21:44.867Z,17.77
2022-08-24T06:24:11.837Z,18.10
2022-08-24T06:26:57.572Z,18.10
2022-08-24T06:29:24.676Z,14.90
2022-08-24T06:31:54.757Z,15.40
2022-08-24T06:34:26.337Z,15.37
2022-08-24T06:36:53.813Z,15.90
2022-08-24T06:39:21.515Z,14.83
2022-08-24T06:41:48.498Z,15.30
2022-08-24T06:44:15.573Z,15.10
2022-08-24T06:46:42.583Z,15.80
2022-08-24T06:49:09.603Z,15.07
2022-08-24T06:51:36.982Z,13.67
2022-08-24T06:54:04.201Z,14.17
2022-08-24T06:56:31.296Z,14.70
2022-08-24T06:59:01.167Z,12.73
2022-08-24T07:01:28.592Z,13.70
2022-08-24T07:03:57.097Z,13.13
2022-08-24T07:06:25.297Z,11.23
2022-08-24T07:08:54.326Z,11.10
2022-08-24T07:11:22.149Z,10.20
2022-08-24T07:13:50.078Z,10.90
2022-08-24T07:16:20.243Z,9.57
2022-08-24T07:18:49.821Z,10.33
2022-08-24T07:21:20.159Z,10.43
2022-08-24T07:23:55.467Z,10.43
2022-08-24T07:26:25.673Z,10.33
2022-08-24T07:29:04.949Z,9.57
2022-08-24T07:31:38.725Z,9.23
2022-08-24T07:34:08.720Z,9.20
2022-08-24T07:36:41.005Z,8.97
2022-08-24T07:39:11.483Z,7.40
2022-08-24T07:42:02.510Z,6.83
2022-08-24T07:44:31.980Z,4.90
2022-08-24T07:47:07.210Z,5.30
2022-08-24T07:49:42.678Z,5.20
2022-08-24T07:52:10.778Z,5.67
2022-08-24T07:54:38.138Z,5.10
2022-08-24T07:57:06.842Z,5.37
2022-08-24T07:59:36.862Z,5.10
2022-08-24T08:02:05.342Z,4.77
2022-08-24T08:04:32.418Z,4.50
2022-08-24T08:07:01.239Z,4.97
2022-08-24T08:09:28.439Z,7.67
2022-08-24T08:11:55.737Z,6.47
2022-08-24T08:14:22.768Z,6.23
2022-08-24T08:16:50.207Z,5.50
2022-08-24T08:19:18.111Z,4.90
2022-08-24T08:22:11.167Z,4.43
2022-08-24T08:24:44.210Z,5.03
2022-08-24T08:27:12.997Z,5.27
2022-08-24T08:29:41.165Z,5.10
2022-08-24T08:32:12.135Z,4.53
2022-08-24T08:34:39.091Z,5.40
2022-08-24T08:37:06.662Z,5.20
2022-08-24T08:39:33.971Z,5.47
2022-08-24T08:42:15.198Z,5.70
2022-08-24T08:45:09.891Z,6.37
2022-08-24T08:48:39.731Z,6.30
2022-08-24T08:51:47.300Z,6.00
2022-08-24T08:54:48.958Z,5.87
2022-08-24T08:57:44.212Z,5.90
2022-08-24T09:00:24.494Z,6.03
2022-08-24T09:03:34.367Z,7.40
2022-08-24T09:06:19.649Z,7.40
2022-08-24T09:09:15.597Z,9.07
2022-08-24T09:12:14.848Z,7.37
2022-08-24T09:15:02.971Z,7.60
2022-08-24T09:18:21.463Z,7.03
2022-08-24T09:21:54.546Z,7.80
2022-08-24T09:24:55.280Z,6.47
2022-08-24T09:27:52.375Z,7.10
2022-08-24T09:30:25.845Z,8.30
2022-08-24T09:33:40.615Z,7.17
2022-08-24T09:36:20.733Z,7.47
2022-08-24T09:39:15.176Z,6.37
2022-08-24T09:42:14.307Z,4.27
2022-08-24T09:44:59.953Z,4.67
2022-08-24T09:48:07.076Z,3.90
2022-08-24T09:51:02.524Z,4.30
2022-08-24T09:54:15.259Z,4.17
2022-08-24T09:56:47.934Z,3.93
2022-08-24T09:59:36.245Z,3.93
2022-08-24T10:02:27.567Z,3.90
2022-08-24T10:05:25.394Z,3.57
2022-08-24T10:08:06.204Z,4.23
2022-08-24T10:11:06.559Z,4.03
2022-08-24T10:14:08.775Z,3.60
2022-08-24T10:17:01.066Z,3.90
2022-08-24T10:20:19.498Z,3.27
2022-08-24T10:22:58.690Z,3.50
2022-08-24T10:25:41.120Z,4.00
2022-08-24T10:28:43.344Z,4.40
2022-08-24T10:31:58.403Z,4.50
2022-08-24T10:34:39.272Z,3.67
2022-08-24T10:38:13.757Z,4.37
2022-08-24T10:41:16.025Z,3.53
2022-08-24T10:44:01.269Z,3.90
2022-08-24T10:46:45.745Z,3.97
2022-08-24T10:49:36.236Z,4.30
2022-08-24T10:52:46.028Z,3.80
2022-08-24T10:55:34.790Z,3.77
2022-08-24T10:58:20.689Z,4.13
2022-08-24T11:00:48.409Z,3.43
2022-08-24T11:03:28.282Z,4.20
2022-08-24T11:05:57.600Z,4.10
2022-08-24T11:08:33.721Z,4.80
2022-08-24T11:11:13.344Z,4.50
2022-08-24T11:14:09.690Z,4.13
2022-08-24T11:16:38.685Z,4.30
2022-08-24T11:19:36.196Z,4.53
2022-08-24T11:22:37.913Z,5.10
2022-08-24T11:25:23.505Z,4.33
2022-08-24T11:27:58.290Z,4.20
2022-08-24T11:30:29.704Z,4.57
2022-08-24T11:33:02.122Z,4.60
2022-08-24T11:35:39.489Z,5.00
2022-08-24T11:38:15.314Z,4.50
2022-08-24T11:41:08.708Z,4.50
2022-08-24T11:44:28.389Z,4.23
2022-08-24T11:47:19.702Z,5.40
2022-08-24T11:50:03.337Z,5.20
2022-08-24T11:52:40.210Z,3.80
2022-08-24T11:55:46.890Z,3.83
2022-08-24T11:58:38.635Z,3.70
2022-08-24T12:01:31.659Z,4.97
2022-08-24T12:04:32.395Z,4.77
2022-08-24T12:07:09.350Z,5.23
2022-08-24T12:10:05.236Z,6.30
2022-08-24T12:12:56.990Z,6.27
2022-08-24T12:15:52.359Z,5.80
2022-08-24T12:18:48.461Z,6.23
2022-08-24T12:21:20.444Z,6.03
2022-08-24T12:24:03.486Z,5.60
2022-08-24T12:26:41.830Z,6.20
2022-08-24T12:29:31.410Z,6.60
2022-08-24T12:32:12.779Z,7.00
2022-08-24T12:35:06.353Z,6.30
2022-08-24T12:37:44.216Z,7.50
2022-08-24T12:40:30.738Z,6.47
2022-08-24T12:43:29.345Z,6.63
2022-08-24T12:46:01.654Z,4.30
2022-08-24T12:48:56.423Z,4.67
2022-08-24T12:51:28.444Z,3.87
2022-08-24T12:54:26.134Z,4.03
2022-08-24T12:57:33.577Z,3.73
2022-08-24T13:00:42.706Z,3.13
2022-08-24T13:03:44.929Z,3.00
2022-08-24T13:06:20.190Z,3.10
2022-08-24T13:08:51.004Z,2.77
2022-08-24T13:11:24.608Z,3.10
2022-08-24T13:13:54.590Z,3.03
2022-08-24T13:16:49.284Z,3.00
2022-08-24T13:19:57.950Z,2.93
2022-08-24T13:22:37.100Z,3.00
2022-08-24T13:25:26.110Z,2.63
2022-08-24T13:28:09.361Z,2.97
2022-08-24T13:30:58.657Z,3.37
2022-08-24T13:33:37.010Z,3.17
2022-08-24T13:36:31.394Z,4.97
2022-08-24T13:39:35.253Z,4.60
2022-08-24T13:42:04.935Z,4.50
2022-08-24T13:45:00.176Z,4.07
2022-08-24T13:48:07.694Z,4.70
2022-08-24T13:51:17.254Z,4.17
2022-08-24T13:54:09.987Z,4.10
2022-08-24T13:57:09.929Z,4.20
2022-08-24T14:00:03.613Z,4.20
2022-08-24T14:03:12.370Z,4.30
2022-08-24T14:06:39.894Z,3.40
2022-08-24T14:09:41.145Z,3.37
2022-08-24T14:12:38.489Z,3.17
2022-08-24T14:16:14.672Z,3.37
2022-08-24T14:19:36.057Z,3.30
2022-08-24T14:22:35.505Z,2.57
2022-08-24T14:25:24.550Z,3.57
2022-08-24T14:28:38.714Z,3.10
2022-08-24T14:31:28.333Z,3.90
2022-08-24T14:34:13.620Z,3.60
2022-08-24T14:36:54.990Z,4.23
2022-08-24T14:39:54.196Z,3.80
2022-08-24T14:42:35.989Z,3.90
2022-08-24T14:45:12.929Z,3.57
2022-08-24T14:48:18.289Z,3.03
2022-08-24T14:51:28.315Z,3.27
2022-08-24T14:54:37.324Z,3.23
2022-08-24T14:57:53.695Z,3.57
2022-08-24T15:00:47.249Z,2.83
2022-08-24T15:03:32.307Z,3.90
2022-08-24T15:06:27.311Z,3.57
2022-08-24T15:09:25.041Z,2.83
2022-08-24T15:12:05.485Z,3.30
2022-08-24T15:14:48.241Z,3.60
2022-08-24T15:17:26.046Z,3.10
2022-08-24T15:20:16.021Z,2.53
2022-08-24T15:22:55.620Z,2.60
2022-08-24T15:25:31.401Z,2.87
2022-08-24T15:28:09.339Z,4.10
2022-08-24T15:30:40.283Z,3.63
2022-08-24T15:33:19.192Z,4.03
2022-08-24T15:36:13.981Z,4.37
2022-08-24T15:38:43.796Z,5.20
2022-08-24T15:41:36.029Z,4.30
2022-08-24T15:44:21.309Z,3.77
2022-08-24T15:46:57.592Z,3.83
2022-08-24T15:49:52.381Z,5.10
2022-08-24T15:53:36.620Z,4.90
2022-08-24T15:56:36.410Z,4.67
2022-08-24T15:59:11.973Z,5.00
2022-08-24T16:01:58.611Z,3.80
2022-08-24T16:04:48.906Z,4.67
2022-08-24T16:07:26.022Z,4.60
2022-08-24T16:10:11.870Z,5.40
2022-08-24T16:12:39.954Z,6.10
2022-08-24T16:15:17.529Z,5.37
2022-08-24T16:17:56.771Z,5.17
2022-08-24T16:20:23.661Z,5.17
2022-08-24T16:23:25.590Z,5.73
2022-08-24T16:26:32.966Z,5.03
2022-08-24T16:29:00.820Z,5.07
2022-08-24T16:31:52.053Z,4.83
2022-08-24T16:34:31.009Z,4.67
2022-08-24T16:36:58.227Z,5.27
2022-08-24T16:39:25.833Z,5.13
2022-08-24T16:41:57.401Z,4.60
2022-08-24T16:44:27.173Z,5.07
2022-08-24T16:46:54.410Z,5.10
2022-08-24T16:49:21.493Z,5.07
2022-08-24T16:51:48.505Z,4.83
2022-08-24T16:54:15.567Z,4.93
2022-08-24T16:56:42.936Z,5.10
2022-08-24T16:59:19.498Z,4.30
2022-08-24T17:01:50.419Z,4.43
2022-08-24T17:04:17.706Z,4.37
2022-08-24T17:06:45.617Z,5.43
2022-08-24T17:09:12.700Z,4.80
2022-08-24T17:11:39.737Z,4.90
2022-08-24T17:14:07.177Z,5.03
2022-08-24T17:16:34.590Z,4.93
2022-08-24T17:19:09.262Z,4.40
2022-08-24T17:21:38.367Z,3.97
2022-08-24T17:24:09.001Z,4.87
2022-08-24T17:26:37.411Z,4.73
2022-08-24T17:29:12.937Z,4.90
2022-08-24T17:31:46.873Z,4.47
2022-08-24T17:34:14.212Z,5.20
2022-08-24T17:36:44.998Z,4.50
2022-08-24T17:39:14.202Z,5.00
2022-08-24T17:41:41.733Z,4.60
2022-08-24T17:44:12.034Z,4.40
2022-08-24T17:46:40.652Z,4.03
2022-08-24T17:49:11.817Z,4.30
2022-08-24T17:51:39.292Z,4.57
2022-08-24T17:54:08.218Z,5.13
2022-08-24T17:56:41.822Z,4.83
2022-08-24T17:59:25.127Z,4.73
2022-08-24T18:02:03.898Z,4.10
2022-08-24T18:04:41.082Z,5.23
2022-08-24T18:07:12.533Z,4.50
2022-08-24T18:09:49.583Z,5.27
2022-08-24T18:12:28.289Z,4.23
2022-08-24T18:15:05.857Z,5.10
2022-08-24T18:17:39.977Z,5.57
2022-08-24T18:20:14.113Z,4.90
2022-08-24T18:22:52.820Z,4.83
2022-08-24T18:25:29.223Z,5.10
2022-08-24T18:27:59.153Z,5.07
2022-08-24T18:30:31.737Z,4.87
2022-08-24T18:33:01.921Z,5.03
2022-08-24T18:35:30.868Z,4.73
2022-08-24T18:37:58.899Z,5.73
2022-08-24T18:40:33.184Z,5.30
2022-08-24T18:43:04.517Z,5.77
2022-08-24T18:45:34.551Z,5.80
2022-08-24T18:48:02.439Z,4.97
2022-08-24T18:50:30.248Z,5.57
2022-08-24T18:53:00.890Z,5.77
2022-08-24T18:55:30.430Z,5.60
2022-08-24T18:57:58.243Z,6.20
2022-08-24T19:00:25.334Z,5.90
2022-08-24T19:02:52.368Z,5.87
2022-08-24T19:05:25.660Z,6.50
2022-08-24T19:07:57.179Z,6.30
2022-08-24T19:10:30.737Z,6.67
2022-08-24T19:13:22.010Z,6.47
2022-08-24T19:15:50.525Z,6.67
2022-08-24T19:18:21.163Z,5.50
2022-08-24T19:20:54.370Z,6.70
2022-08-24T19:23:47.021Z,6.70
2022-08-24T19:26:20.103Z,6.80
2022-08-24T19:28:49.012Z,7.40
2022-08-24T19:31:25.531Z,7.43
2022-08-24T19:34:04.328Z,7.40
2022-08-24T19:36:43.307Z,7.07
2022-08-24T19:39:11.157Z,6.90
2022-08-24T19:41:44.373Z,8.40
2022-08-24T19:44:43.223Z,7.80
2022-08-24T19:47:17.378Z,7.80
2022-08-24T19:49:46.081Z,8.57
2022-08-24T19:52:15.022Z,9.33
2022-08-24T19:54:46.552Z,9.97
2022-08-24T19:57:25.311Z,9.57
2022-08-24T20:00:04.745Z,9.73
2022-08-24T20:02:32.027Z,9.97
2022-08-24T20:04:59.567Z,8.57
2022-08-24T20:07:26.593Z,9.00
2022-08-24T20:09:54.057Z,8.77
2022-08-24T20:12:21.062Z,8.70
2022-08-24T20:14:48.363Z,8.90
2022-08-24T20:17:15.357Z,8.90
2022-08-24T20:19:42.432Z,8.40
2022-08-24T20:22:13.464Z,7.20
2022-08-24T20:24:40.992Z,7.23
2022-08-24T20:27:07.970Z,7.20
2022-08-24T20:29:34.996Z,6.50
2022-08-24T20:32:02.753Z,6.40
2022-08-24T20:34:29.897Z,7.27
2022-08-24T20:36:58.700Z,7.00
2022-08-24T20:39:28.768Z,6.60
2022-08-24T20:41:56.052Z,6.40
2022-08-24T20:44:23.718Z,7.67
2022-08-24T20:46:51.194Z,7.30
2022-08-24T20:49:23.092Z,6.60
2022-08-24T20:51:50.045Z,7.03
2022-08-24T20:54:17.016Z,6.63
2022-08-24T20:56:45.520Z,6.83
2022-08-24T20:59:14.607Z,7.30
2022-08-24T21:01:46.038Z,7.10
2022-08-24T21:04:13.968Z,7.40
2022-08-24T21:06:43.952Z,6.80
2022-08-24T21:09:14.005Z,7.00
2022-08-24T21:11:43.338Z,6.60
2022-08-24T21:14:10.319Z,6.67
2022-08-24T21:16:41.340Z,6.37
2022-08-24T21:19:11.843Z,6.60
2022-08-24T21:21:42.315Z,7.10
2022-08-24T21:24:09.889Z,6.30
2022-08-24T21:26:37.057Z,5.43
2022-08-24T21:29:07.111Z,7.30
2022-08-24T21:31:35.926Z,6.60
2022-08-24T21:34:21.792Z,6.90
2022-08-24T21:36:49.961Z,7.47
2022-08-24T21:39:19.685Z,6.37
2022-08-24T21:41:46.677Z,7.73
2022-08-24T21:44:13.693Z,7.40
2022-08-24T21:46:41.032Z,7.60
2022-08-24T21:49:08.899Z,7.40
2022-08-24T21:51:39.977Z,8.30
2022-08-24T21:54:07.047Z,7.00
2022-08-24T21:56:35.699Z,6.40
2022-08-24T21:59:03.427Z,8.13
2022-08-24T22:01:30.614Z,7.97
2022-08-24T22:04:01.655Z,7.20
2022-08-24T22:06:31.530Z,7.50
2022-08-24T22:09:01.023Z,8.33
2022-08-24T22:11:29.203Z,7.10
2022-08-24T22:13:56.677Z,8.63
2022-08-24T22:16:25.722Z,7.03
2022-08-24T22:18:53.012Z,7.37
2022-08-24T22:21:24.481Z,7.67
2022-08-24T22:23:51.438Z,6.77
2022-08-24T22:26:19.018Z,8.07
2022-08-24T22:28:46.017Z,7.80
2022-08-24T22:31:30.954Z,6.53
2022-08-24T22:34:01.016Z,8.23
2022-08-24T22:36:29.704Z,8.03
2022-08-24T22:38:58.638Z,7.87
2022-08-24T22:41:28.192Z,8.60
2022-08-24T22:44:15.612Z,8.33
2022-08-24T22:46:43.474Z,7.63
2022-08-24T22:49:11.877Z,8.30
2022-08-24T22:51:39.772Z,7.93
2022-08-24T22:54:07.850Z,8.83
2022-08-24T22:56:40.594Z,9.00
2022-08-24T22:59:10.817Z,7.90
2022-08-24T23:01:41.339Z,8.63
2022-08-24T23:04:14.846Z,8.80
2022-08-24T23:06:43.457Z,9.03
2022-08-24T23:09:11.379Z,8.37
2022-08-24T23:11:39.534Z,7.87
2022-08-24T23:14:09.422Z,7.70
2022-08-24T23:16:40.045Z,7.73
2022-08-24T23:19:27.283Z,7.83
2022-08-24T23:21:54.347Z,7.70
2022-08-24T23:24:22.178Z,8.50
2022-08-24T23:26:49.692Z,8.43
2022-08-24T23:29:17.413Z,8.53
2022-08-24T23:31:46.357Z,7.40
2022-08-24T23:34:15.257Z,7.80
2022-08-24T23:36:43.997Z,9.43
2022-08-24T23:39:12.242Z,8.67
2022-08-24T23:41:46.137Z,8.30
2022-08-24T23:44:22.197Z,8.63
2022-08-24T23:46:49.968Z,9.00
2022-08-24T23:49:20.193Z,8.27
2022-08-24T23:51:49.003Z,8.67
2022-08-24T23:54:18.557Z,9.37
2022-08-24T23:56:48.526Z,9.03
2022-08-24T23:59:21.818Z,7.40
